createdAt,value
2023-04-27T00:01:41.803Z,2.85
2023-04-27T00:04:10.261Z,3.03
2023-04-27T00:06:40.116Z,3.42
2023-04-27T00:09:08.410Z,3.00
2023-04-27T00:11:38.451Z,3.08
2023-04-27T00:14:06.841Z,3.55
2023-04-27T00:16:36.017Z,3.65
2023-04-27T00:19:04.829Z,3.13
2023-04-27T00:21:33.303Z,3.15
2023-04-27T00:24:02.060Z,2.97
2023-04-27T00:26:30.374Z,2.80
2023-04-27T00:29:01.673Z,3.17
2023-04-27T00:31:29.987Z,2.80
2023-04-27T00:33:59.279Z,2.97
2023-04-27T00:36:27.570Z,3.30
2023-04-27T00:38:57.512Z,2.72
2023-04-27T00:41:26.554Z,2.75
2023-04-27T00:43:54.806Z,2.83
2023-04-27T00:46:26.763Z,2.85
2023-04-27T00:48:55.328Z,3.10
2023-04-27T00:51:27.785Z,2.92
2023-04-27T00:53:58.239Z,3.05
2023-04-27T00:56:28.217Z,2.85
2023-04-27T00:58:56.878Z,3.38
2023-04-27T01:01:28.028Z,2.70
2023-04-27T01:03:56.425Z,2.92
2023-04-27T01:06:25.600Z,2.60
2023-04-27T01:08:54.069Z,3.22
2023-04-27T01:11:23.821Z,3.38
2023-04-27T01:13:53.356Z,2.65
2023-04-27T01:16:21.763Z,2.90
2023-04-27T01:18:52.523Z,2.60
2023-04-27T01:21:21.893Z,2.90
2023-04-27T01:23:51.630Z,2.83
2023-04-27T01:26:20.602Z,2.78
2023-04-27T01:28:50.128Z,5.07
2023-04-27T01:31:19.118Z,5.63
2023-04-27T01:33:48.858Z,4.10
2023-04-27T01:36:17.574Z,3.08
2023-04-27T01:38:46.303Z,2.92
2023-04-27T01:41:15.978Z,3.10
2023-04-27T01:43:45.055Z,3.20
2023-04-27T01:46:15.632Z,3.10
2023-04-27T01:48:44.775Z,3.30
2023-04-27T01:51:14.424Z,2.97
2023-04-27T01:53:43.302Z,3.20
2023-04-27T01:56:12.444Z,3.10
2023-04-27T01:58:41.985Z,3.93
2023-04-27T02:01:11.830Z,2.83
2023-04-27T02:03:40.614Z,2.95
2023-04-27T02:06:09.383Z,3.83
2023-04-27T02:08:38.551Z,3.67
2023-04-27T02:11:10.181Z,4.05
2023-04-27T02:13:42.712Z,3.30
2023-04-27T02:16:11.187Z,3.30
2023-04-27T02:18:42.177Z,3.30
2023-04-27T02:21:11.800Z,2.88
2023-04-27T02:23:40.727Z,3.17
2023-04-27T02:26:09.031Z,3.03
2023-04-27T02:28:39.568Z,3.22
2023-04-27T02:31:09.772Z,3.10
2023-04-27T02:33:38.517Z,3.10
2023-04-27T02:36:08.028Z,3.38
2023-04-27T02:38:36.392Z,3.20
2023-04-27T02:41:05.133Z,2.75
2023-04-27T02:43:35.582Z,3.08
2023-04-27T02:46:08.314Z,3.20
2023-04-27T02:48:37.956Z,3.00
2023-04-27T02:51:08.113Z,3.30
2023-04-27T02:53:36.374Z,3.33
2023-04-27T02:56:06.765Z,4.13
2023-04-27T02:58:35.141Z,3.78
2023-04-27T03:01:04.302Z,4.40
2023-04-27T03:03:33.222Z,3.00
2023-04-27T03:06:03.782Z,8.85
2023-04-27T03:08:33.865Z,9.77
2023-04-27T03:11:02.196Z,5.20
2023-04-27T03:13:31.213Z,4.90
2023-04-27T03:16:01.142Z,10.23
2023-04-27T03:18:31.132Z,9.02
2023-04-27T03:21:08.054Z,5.60
2023-04-27T03:23:38.503Z,4.63
2023-04-27T03:26:07.738Z,3.88
2023-04-27T03:28:37.539Z,4.05
2023-04-27T03:31:07.167Z,3.28
2023-04-27T03:33:36.892Z,3.17
2023-04-27T03:36:07.812Z,3.17
2023-04-27T03:38:36.520Z,3.30
2023-04-27T03:41:06.012Z,3.08
2023-04-27T03:43:34.248Z,3.17
2023-04-27T03:46:04.852Z,2.95
2023-04-27T03:48:33.307Z,3.57
2023-04-27T03:51:03.094Z,3.50
2023-04-27T03:53:32.731Z,7.57
2023-04-27T03:56:03.738Z,9.83
2023-04-27T03:58:32.253Z,5.27
2023-04-27T04:01:11.536Z,3.90
2023-04-27T04:03:41.246Z,3.77
2023-04-27T04:06:10.277Z,3.00
2023-04-27T04:08:40.388Z,3.17
2023-04-27T04:11:08.628Z,3.17
2023-04-27T04:13:39.467Z,3.63
2023-04-27T04:16:09.615Z,3.40
2023-04-27T04:18:39.056Z,3.40
2023-04-27T04:21:07.636Z,2.88
2023-04-27T04:23:36.358Z,2.90
2023-04-27T04:26:06.158Z,2.70
2023-04-27T04:28:37.086Z,3.27
2023-04-27T04:31:06.559Z,2.77
2023-04-27T04:33:34.879Z,2.80
2023-04-27T04:36:05.055Z,3.00
2023-04-27T04:38:35.111Z,3.13
2023-04-27T04:41:03.953Z,3.60
2023-04-27T04:43:35.920Z,3.50
2023-04-27T04:46:07.332Z,3.55
2023-04-27T04:48:35.885Z,3.28
2023-04-27T04:51:07.222Z,3.37
2023-04-27T04:53:36.831Z,2.83
2023-04-27T04:56:12.119Z,2.60
2023-04-27T04:58:41.741Z,3.60
2023-04-27T05:01:10.966Z,2.80
2023-04-27T05:03:40.215Z,3.38
2023-04-27T05:06:09.106Z,3.03
2023-04-27T05:08:37.792Z,3.13
2023-04-27T05:11:06.208Z,3.43
2023-04-27T05:13:35.584Z,3.57
2023-04-27T05:18:56.340Z,3.17
2023-04-27T05:21:24.573Z,3.40
2023-04-27T05:23:52.832Z,3.10
2023-04-27T05:26:21.250Z,3.10
2023-04-27T05:28:50.684Z,3.72
2023-04-27T05:31:20.412Z,4.10
2023-04-27T05:33:49.117Z,3.97
2023-04-27T05:36:18.298Z,3.45
2023-04-27T05:38:46.554Z,3.17
2023-04-27T05:41:15.926Z,3.47
2023-04-27T05:43:44.217Z,3.47
2023-04-27T05:46:14.835Z,3.60
2023-04-27T05:48:44.471Z,3.60
2023-04-27T05:51:13.118Z,3.35
2023-04-27T05:53:41.915Z,3.40
2023-04-27T05:56:11.727Z,6.55
2023-04-27T05:58:40.960Z,27.77
2023-04-27T06:01:09.575Z,20.17
2023-04-27T06:03:38.568Z,7.05
2023-04-27T06:06:08.532Z,6.68
2023-04-27T06:08:38.076Z,5.47
2023-04-27T06:11:06.403Z,5.03
2023-04-27T06:13:35.163Z,4.80
2023-04-27T06:16:03.665Z,4.45
2023-04-27T06:18:32.525Z,4.55
2023-04-27T06:21:02.183Z,3.95
2023-04-27T06:23:33.088Z,3.92
2023-04-27T06:26:02.404Z,4.13
2023-04-27T06:28:31.373Z,4.30
2023-04-27T06:30:59.606Z,4.40
2023-04-27T06:33:27.898Z,4.90
2023-04-27T06:35:56.408Z,4.30
2023-04-27T06:38:25.162Z,4.22
2023-04-27T06:40:54.979Z,4.82
2023-04-27T06:43:24.438Z,4.95
2023-04-27T06:45:52.769Z,4.63
2023-04-27T06:48:21.831Z,4.20
2023-04-27T06:50:50.111Z,4.40
2023-04-27T06:53:18.541Z,5.10
2023-04-27T06:55:48.432Z,5.05
2023-04-27T06:58:18.321Z,4.82
2023-04-27T07:00:47.011Z,4.75
2023-04-27T07:03:15.704Z,4.75
2023-04-27T07:05:44.099Z,4.93
2023-04-27T07:08:14.180Z,4.72
2023-04-27T07:10:42.558Z,4.85
2023-04-27T07:13:12.426Z,5.05
2023-04-27T07:15:42.916Z,5.28
2023-04-27T07:18:12.185Z,4.68
2023-04-27T07:20:42.223Z,8.80
2023-04-27T07:23:10.731Z,15.00
2023-04-27T07:25:40.299Z,7.88
2023-04-27T07:28:09.342Z,4.57
2023-04-27T07:30:38.005Z,4.80
2023-04-27T07:33:08.415Z,4.30
2023-04-27T07:35:37.138Z,4.28
2023-04-27T07:38:06.852Z,4.05
2023-04-27T07:40:35.268Z,4.20
2023-04-27T07:43:04.144Z,5.20
2023-04-27T07:45:33.003Z,4.30
2023-04-27T07:48:02.696Z,4.93
2023-04-27T07:50:33.478Z,4.10
2023-04-27T07:53:01.852Z,4.78
2023-04-27T07:55:31.016Z,4.20
2023-04-27T07:57:59.302Z,4.20
2023-04-27T08:00:28.325Z,4.30
2023-04-27T08:02:57.101Z,5.43
2023-04-27T08:05:26.703Z,6.35
2023-04-27T08:07:57.538Z,8.55
2023-04-27T08:10:25.946Z,4.63
2023-04-27T08:12:54.834Z,3.95
2023-04-27T08:15:23.060Z,4.45
2023-04-27T08:17:51.416Z,4.28
2023-04-27T08:20:19.961Z,4.68
2023-04-27T08:22:48.274Z,4.30
2023-04-27T08:25:18.357Z,4.22
2023-04-27T08:27:46.679Z,4.05
2023-04-27T08:30:15.350Z,3.80
2023-04-27T08:32:43.650Z,3.70
2023-04-27T08:35:12.232Z,3.75
2023-04-27T08:37:40.898Z,3.38
2023-04-27T08:40:10.887Z,3.80
2023-04-27T08:42:54.669Z,3.28
2023-04-27T08:45:23.713Z,3.42
2023-04-27T08:47:52.426Z,3.28
2023-04-27T08:50:21.379Z,3.35
2023-04-27T08:52:50.700Z,3.50
2023-04-27T08:55:19.046Z,3.03
2023-04-27T08:58:06.318Z,3.20
2023-04-27T09:00:40.690Z,3.85
2023-04-27T09:03:09.261Z,3.50
2023-04-27T09:05:42.279Z,3.67
2023-04-27T09:08:14.792Z,3.50
2023-04-27T09:10:47.145Z,3.65
2023-04-27T09:13:17.332Z,4.55
2023-04-27T09:15:48.791Z,3.75
2023-04-27T09:18:19.853Z,4.40
2023-04-27T09:20:50.137Z,4.47
2023-04-27T09:23:28.877Z,3.30
2023-04-27T09:25:58.252Z,3.40
2023-04-27T09:28:29.404Z,3.15
2023-04-27T09:30:59.282Z,2.90
2023-04-27T09:33:29.994Z,2.78
2023-04-27T09:35:59.728Z,2.70
2023-04-27T09:38:29.156Z,2.33
2023-04-27T09:40:57.648Z,2.20
2023-04-27T09:43:27.345Z,1.95
2023-04-27T09:45:57.555Z,2.22
2023-04-27T09:48:27.133Z,2.15
2023-04-27T09:50:55.485Z,3.70
2023-04-27T09:53:27.596Z,3.10
2023-04-27T09:56:14.509Z,3.33
2023-04-27T09:59:06.529Z,2.47
2023-04-27T10:01:41.433Z,3.33
2023-04-27T10:04:36.660Z,2.95
2023-04-27T10:07:08.578Z,2.80
2023-04-27T10:09:38.579Z,2.70
2023-04-27T10:12:19.278Z,2.90
2023-04-27T10:14:55.692Z,2.88
2023-04-27T10:17:31.576Z,2.90
2023-04-27T10:20:01.125Z,2.85
2023-04-27T10:22:40.463Z,3.30
2023-04-27T10:25:18.062Z,2.60
2023-04-27T10:27:52.163Z,2.58
2023-04-27T10:30:22.007Z,3.00
2023-04-27T10:32:56.843Z,2.60
2023-04-27T10:35:34.782Z,2.60
2023-04-27T10:38:07.616Z,3.15
2023-04-27T10:40:38.515Z,3.22
2023-04-27T10:43:11.303Z,3.42
2023-04-27T10:45:40.536Z,2.72
2023-04-27T10:48:16.140Z,2.95
2023-04-27T10:50:47.203Z,3.17
2023-04-27T10:53:15.691Z,3.22
2023-04-27T10:55:44.806Z,2.97
2023-04-27T10:58:13.147Z,2.65
2023-04-27T11:00:44.987Z,3.42
2023-04-27T11:03:18.561Z,3.55
2023-04-27T11:05:49.074Z,3.60
2023-04-27T11:08:21.400Z,3.30
2023-04-27T11:10:52.150Z,2.88
2023-04-27T11:13:23.871Z,3.22
2023-04-27T11:15:54.652Z,3.10
2023-04-27T11:18:27.786Z,3.15
2023-04-27T11:21:08.019Z,3.20
2023-04-27T11:23:38.957Z,3.30
2023-04-27T11:26:11.064Z,3.00
2023-04-27T11:28:40.513Z,3.30
2023-04-27T11:31:09.101Z,3.50
2023-04-27T11:33:41.161Z,4.10
2023-04-27T11:36:19.167Z,3.80
2023-04-27T11:38:50.055Z,3.28
2023-04-27T11:41:18.808Z,3.45
2023-04-27T11:43:49.173Z,3.60
2023-04-27T11:46:22.324Z,3.17
2023-04-27T11:48:51.992Z,3.58
2023-04-27T11:51:20.689Z,3.67
2023-04-27T11:53:51.581Z,3.97
2023-04-27T11:56:19.907Z,3.75
2023-04-27T11:58:49.598Z,3.38
2023-04-27T12:01:27.545Z,3.42
2023-04-27T12:04:05.835Z,3.17
2023-04-27T12:06:34.748Z,3.08
2023-04-27T12:09:04.686Z,3.63
2023-04-27T12:11:34.305Z,3.38
2023-04-27T12:14:03.809Z,3.30
2023-04-27T12:16:32.285Z,3.50
2023-04-27T12:19:01.050Z,3.25
2023-04-27T12:21:32.146Z,3.30
2023-04-27T12:24:01.437Z,2.83
2023-04-27T12:26:30.621Z,2.92
2023-04-27T12:28:59.897Z,3.38
2023-04-27T12:31:28.363Z,3.00
2023-04-27T12:33:57.520Z,3.45
2023-04-27T12:36:27.298Z,3.15
2023-04-27T12:39:00.724Z,3.20
2023-04-27T12:41:29.269Z,2.72
2023-04-27T12:43:58.768Z,3.30
2023-04-27T12:46:27.972Z,3.60
2023-04-27T12:48:57.055Z,3.00
2023-04-27T12:51:28.640Z,2.90
2023-04-27T12:54:00.809Z,3.10
2023-04-27T12:56:30.699Z,3.05
2023-04-27T12:59:00.157Z,2.72
2023-04-27T13:01:29.181Z,2.80
2023-04-27T13:04:01.292Z,3.08
2023-04-27T13:06:31.221Z,2.72
2023-04-27T13:09:03.584Z,2.90
2023-04-27T13:11:31.960Z,3.53
2023-04-27T13:14:02.428Z,2.70
2023-04-27T13:16:30.845Z,3.40
2023-04-27T13:19:00.731Z,3.05
2023-04-27T13:21:29.489Z,2.58
2023-04-27T13:24:00.242Z,2.97
2023-04-27T13:26:30.246Z,2.90
2023-04-27T13:28:59.176Z,2.58
2023-04-27T13:31:27.629Z,2.47
2023-04-27T13:33:56.476Z,2.63
2023-04-27T13:36:24.878Z,2.45
2023-04-27T13:38:53.191Z,2.53
2023-04-27T13:41:22.873Z,2.70
2023-04-27T13:43:52.535Z,2.80
2023-04-27T13:46:20.989Z,2.70
2023-04-27T13:48:49.509Z,2.95
2023-04-27T13:51:17.848Z,3.05
2023-04-27T13:53:46.980Z,3.25
2023-04-27T13:56:15.329Z,2.70
2023-04-27T13:58:44.103Z,2.75
2023-04-27T14:01:13.868Z,3.45
2023-04-27T14:03:43.886Z,3.33
2023-04-27T14:06:12.414Z,3.72
2023-04-27T14:08:41.568Z,2.95
2023-04-27T14:11:12.859Z,2.70
2023-04-27T14:13:41.184Z,2.92
2023-04-27T14:16:09.982Z,2.70
2023-04-27T14:18:39.738Z,2.60
2023-04-27T14:21:09.018Z,2.50
2023-04-27T14:23:37.536Z,3.03
2023-04-27T14:26:06.235Z,2.45
2023-04-27T14:28:34.653Z,2.47
2023-04-27T14:31:03.495Z,2.90
2023-04-27T14:33:32.302Z,2.55
2023-04-27T14:36:02.737Z,2.28
2023-04-27T14:38:31.416Z,2.45
2023-04-27T14:41:00.515Z,2.40
2023-04-27T14:43:28.839Z,3.15
2023-04-27T14:46:08.155Z,2.80
2023-04-27T14:48:46.283Z,2.25
2023-04-27T14:51:17.346Z,2.85
2023-04-27T14:53:46.289Z,2.80
2023-04-27T14:56:15.135Z,3.03
2023-04-27T14:58:44.022Z,3.40
2023-04-27T15:01:12.425Z,3.20
2023-04-27T15:03:41.434Z,2.78
2023-04-27T15:06:09.960Z,3.13
2023-04-27T15:08:40.715Z,3.40
2023-04-27T15:11:09.072Z,2.88
2023-04-27T15:13:37.849Z,3.42
2023-04-27T15:16:07.284Z,2.78
2023-04-27T15:18:36.291Z,3.13
2023-04-27T15:21:05.065Z,3.03
2023-04-27T15:23:33.848Z,3.13
2023-04-27T15:26:03.938Z,2.83
2023-04-27T15:28:33.724Z,3.55
2023-04-27T15:31:02.147Z,3.15
2023-04-27T15:33:31.075Z,3.03
2023-04-27T15:36:00.400Z,2.90
2023-04-27T15:38:28.729Z,3.13
2023-04-27T15:40:57.134Z,3.20
2023-04-27T15:43:27.041Z,3.15
2023-04-27T15:45:56.561Z,2.70
2023-04-27T15:48:25.968Z,2.92
2023-04-27T15:50:55.155Z,2.95
2023-04-27T15:53:23.527Z,2.92
2023-04-27T15:55:52.771Z,2.88
2023-04-27T15:58:21.430Z,3.38
2023-04-27T16:00:52.128Z,3.00
2023-04-27T16:03:20.580Z,3.63
2023-04-27T16:05:51.060Z,3.17
2023-04-27T16:08:19.517Z,3.60
2023-04-27T16:10:48.388Z,3.20
2023-04-27T16:13:16.776Z,3.25
2023-04-27T16:15:45.148Z,3.20
2023-04-27T16:18:14.792Z,2.95
2023-04-27T16:20:43.574Z,3.47
2023-04-27T16:23:11.999Z,3.33
2023-04-27T16:25:42.038Z,4.00
2023-04-27T16:28:10.373Z,3.60
2023-04-27T16:30:38.846Z,3.40
2023-04-27T16:33:07.745Z,3.60
2023-04-27T16:35:37.420Z,3.05
2023-04-27T16:38:07.009Z,3.72
2023-04-27T16:40:35.391Z,3.67
2023-04-27T16:43:04.633Z,3.72
2023-04-27T16:45:34.078Z,3.47
2023-04-27T16:48:03.724Z,3.00
2023-04-27T16:50:33.396Z,3.80
2023-04-27T16:53:07.632Z,3.47
2023-04-27T16:55:37.129Z,3.67
2023-04-27T16:58:05.490Z,3.55
2023-04-27T17:00:34.876Z,4.20
2023-04-27T17:03:03.381Z,3.70
2023-04-27T17:05:32.755Z,3.38
2023-04-27T17:08:02.624Z,2.80
2023-04-27T17:10:35.561Z,4.30
2023-04-27T17:13:05.535Z,5.43
2023-04-27T17:15:34.153Z,4.05
2023-04-27T17:18:05.585Z,3.05
2023-04-27T17:20:34.006Z,3.03
2023-04-27T17:23:03.884Z,2.95
2023-04-27T17:25:33.642Z,3.00
2023-04-27T17:28:02.735Z,2.50
2023-04-27T17:30:31.051Z,2.33
2023-04-27T17:32:59.879Z,2.90
2023-04-27T17:35:29.217Z,2.75
2023-04-27T17:37:57.662Z,2.60
2023-04-27T17:40:26.027Z,2.55
2023-04-27T17:42:58.245Z,2.53
2023-04-27T17:45:29.110Z,2.45
2023-04-27T17:47:57.494Z,3.03
2023-04-27T17:50:26.790Z,2.50
2023-04-27T17:52:55.650Z,2.70
2023-04-27T17:55:25.030Z,2.10
2023-04-27T17:57:54.346Z,2.45
2023-04-27T18:00:24.647Z,2.10
2023-04-27T18:02:53.072Z,2.40
2023-04-27T18:05:22.008Z,2.35
2023-04-27T18:07:50.412Z,2.30
2023-04-27T18:10:19.034Z,2.28
2023-04-27T18:12:47.431Z,2.40
2023-04-27T18:15:15.864Z,2.63
2023-04-27T18:17:46.541Z,2.47
2023-04-27T18:20:15.646Z,2.60
2023-04-27T18:22:45.730Z,2.70
2023-04-27T18:25:14.121Z,2.50
2023-04-27T18:27:44.002Z,2.60
2023-04-27T18:30:12.794Z,3.10
2023-04-27T18:32:42.315Z,2.65
2023-04-27T18:35:13.343Z,2.70
2023-04-27T18:37:41.730Z,3.13
2023-04-27T18:40:13.510Z,2.80
2023-04-27T18:42:41.905Z,3.58
2023-04-27T18:45:11.650Z,3.03
2023-04-27T18:47:40.800Z,3.08
2023-04-27T18:50:09.921Z,3.15
2023-04-27T18:52:39.782Z,3.20
2023-04-27T18:55:10.149Z,3.08
2023-04-27T18:57:38.578Z,4.10
2023-04-27T19:00:09.005Z,3.20
2023-04-27T19:02:37.674Z,3.20
2023-04-27T19:05:13.030Z,3.45
2023-04-27T19:07:44.933Z,3.40
2023-04-27T19:10:13.401Z,3.28
2023-04-27T19:12:42.137Z,2.80
2023-04-27T19:15:11.509Z,3.80
2023-04-27T19:17:41.374Z,3.10
2023-04-27T19:20:11.438Z,4.55
2023-04-27T19:22:40.172Z,3.72
2023-04-27T19:25:10.758Z,3.53
2023-04-27T19:27:39.959Z,2.50
2023-04-27T19:30:09.767Z,2.40
2023-04-27T19:32:38.392Z,2.90
2023-04-27T19:35:11.706Z,2.45
2023-04-27T19:37:40.171Z,2.85
2023-04-27T19:40:11.357Z,3.33
2023-04-27T19:42:39.667Z,4.25
2023-04-27T19:45:09.556Z,4.13
2023-04-27T19:47:38.062Z,3.50
2023-04-27T19:50:07.648Z,3.55
2023-04-27T19:52:36.403Z,4.38
2023-04-27T19:55:05.195Z,3.45
2023-04-27T19:57:34.884Z,3.35
2023-04-27T20:00:04.928Z,3.28
2023-04-27T20:02:41.735Z,2.90
2023-04-27T20:05:11.419Z,3.35
2023-04-27T20:07:40.586Z,3.38
2023-04-27T20:10:09.346Z,2.90
2023-04-27T20:12:54.392Z,2.80
2023-04-27T20:15:25.286Z,3.60
2023-04-27T20:17:54.315Z,3.90
2023-04-27T20:20:22.808Z,3.50
2023-04-27T20:22:52.755Z,4.10
2023-04-27T20:25:21.091Z,3.97
2023-04-27T20:27:51.788Z,3.80
2023-04-27T20:30:20.653Z,3.92
2023-04-27T20:32:49.573Z,4.05
2023-04-27T20:35:19.510Z,4.40
2023-04-27T20:37:47.869Z,4.32
2023-04-27T20:40:18.206Z,5.00
2023-04-27T20:42:49.894Z,4.05
2023-04-27T20:45:19.967Z,4.15
2023-04-27T20:47:49.078Z,3.65
2023-04-27T20:50:17.572Z,4.70
2023-04-27T20:52:46.516Z,4.95
2023-04-27T20:55:15.062Z,5.55
2023-04-27T20:57:43.956Z,5.07
2023-04-27T21:00:15.323Z,5.47
2023-04-27T21:02:45.352Z,6.05
2023-04-27T21:05:13.804Z,5.28
2023-04-27T21:07:43.249Z,9.35
2023-04-27T21:10:13.116Z,7.78
2023-04-27T21:12:42.012Z,6.47
2023-04-27T21:15:10.871Z,5.63
2023-04-27T21:17:39.705Z,4.85
2023-04-27T21:20:11.212Z,4.72
2023-04-27T21:22:39.586Z,4.38
2023-04-27T21:25:08.838Z,4.13
2023-04-27T21:27:37.590Z,5.78
2023-04-27T21:30:08.463Z,5.18
2023-04-27T21:32:36.830Z,5.05
2023-04-27T21:35:06.020Z,5.43
2023-04-27T21:37:36.305Z,6.55
2023-04-27T21:40:06.698Z,5.53
2023-04-27T21:42:35.520Z,4.60
2023-04-27T21:45:04.677Z,5.10
2023-04-27T21:47:33.630Z,4.43
2023-04-27T21:50:02.012Z,4.93
2023-04-27T21:52:30.867Z,4.72
2023-04-27T21:55:00.536Z,4.88
2023-04-27T21:57:30.264Z,5.60
2023-04-27T21:59:58.612Z,4.80
2023-04-27T22:02:29.441Z,4.28
2023-04-27T22:04:59.392Z,4.30
2023-04-27T22:07:28.377Z,5.18
2023-04-27T22:09:57.178Z,4.85
2023-04-27T22:12:26.947Z,4.65
2023-04-27T22:14:55.622Z,4.60
2023-04-27T22:17:23.980Z,4.65
2023-04-27T22:19:53.243Z,4.22
2023-04-27T22:22:21.643Z,4.20
2023-04-27T22:24:50.629Z,4.60
2023-04-27T22:27:19.753Z,4.30
2023-04-27T22:29:50.366Z,4.57
2023-04-27T22:32:18.783Z,4.40
2023-04-27T22:34:47.710Z,4.65
2023-04-27T22:37:16.211Z,3.80
2023-04-27T22:39:45.751Z,4.68
2023-04-27T22:42:14.505Z,4.18
2023-04-27T22:44:43.269Z,3.92
2023-04-27T22:47:13.260Z,4.47
2023-04-27T22:49:42.242Z,4.07
2023-04-27T22:52:11.642Z,4.20
2023-04-27T22:54:40.020Z,4.20
2023-04-27T22:57:08.795Z,3.95
2023-04-27T22:59:37.187Z,4.38
2023-04-27T23:02:06.574Z,4.35
2023-04-27T23:04:36.310Z,4.57
2023-04-27T23:07:05.721Z,3.78
2023-04-27T23:09:34.824Z,4.15
2023-04-27T23:12:03.366Z,4.38
2023-04-27T23:14:33.407Z,4.70
2023-04-27T23:17:02.343Z,4.82
2023-04-27T23:19:30.979Z,4.18
2023-04-27T23:22:01.895Z,4.57
2023-04-27T23:24:30.707Z,4.32
2023-04-27T23:27:00.109Z,3.38
2023-04-27T23:29:28.512Z,4.30
2023-04-27T23:32:02.537Z,4.00
2023-04-27T23:34:32.330Z,4.75
2023-04-27T23:37:02.126Z,4.60
2023-04-27T23:39:30.955Z,4.80
2023-04-27T23:41:59.846Z,4.43
2023-04-27T23:44:28.708Z,4.03
2023-04-27T23:46:57.475Z,4.30
2023-04-27T23:49:25.991Z,4.30
2023-04-27T23:51:54.405Z,4.45
2023-04-27T23:54:26.493Z,4.10
2023-04-27T23:56:54.874Z,4.05
2023-04-27T23:59:23.970Z,4.20
